Date,TemperatureHighF,TemperatureAvgF,TemperatureLowF,DewpointHighF,DewpointAvgF,DewpointLowF,HumidityHigh,HumidityAvg,HumidityLow,PressureMaxIn,PressureMinIn,WindSpeedMaxMPH,WindSpeedAvgMPH,GustSpeedMaxMPH,PrecipitationSumIn
2013-1-1,33.8,22.4,9.3,30.1,18.1,6.5,94,84,70,29.90,29.71,15,5,23,0.00
2013-1-2,26.8,22.1,15.3,21.4,17.1,10.8,91,81,71,30.06,29.85,10,4,17,0.00
2013-1-3,29.5,23.7,16.9,27.3,20.4,13.7,94,87,77,30.06,29.82,14,4,18,0.00
2013-1-4,32.7,30.1,26.8,27.0,24.2,19.8,85,79,68,29.89,29.73,21,11,37,0.01
2013-1-5,36.5,33.0,29.7,29.9,26.2,23.5,87,76,67,30.16,29.89,13,4,23,0.01
2013-1-6,38.1,35.7,33.4,34.8,32.0,25.2,97,87,68,29.96,29.75,13,6,20,0.02
2013-1-7,36.0,30.0,26.1,34.0,24.6,21.4,93,81,69,30.26,29.95,12,5,18,0.00
2013-1-8,41.9,34.7,29.3,29.4,24.1,19.3,81,65,55,30.18,30.02,11,3,15,0.00
2013-1-9,48.7,40.8,35.1,36.5,30.9,21.5,78,68,56,30.21,29.84,21,8,32,0.00
2013-1-10,50.0,39.3,34.5,31.6,28.9,26.4,80,67,48,30.47,30.21,11,2,21,0.00
2013-1-11,51.4,44.7,36.1,47.1,36.2,24.7,90,73,46,30.28,29.74,15,6,22,0.07
2013-1-12,61.0,53.4,45.7,52.8,48.0,43.8,94,82,68,29.88,29.83,10,4,14,0.00
2013-1-13,69.4,58.3,52.7,57.2,53.0,48.7,95,83,65,29.86,29.64,15,5,24,0.01
2013-1-14,57.7,35.9,28.2,55.1,29.3,19.2,97,77,60,30.26,29.62,19,5,27,0.01
2013-1-15,36.7,30.9,28.0,24.1,21.4,19.1,75,68,54,30.27,30.02,7,2,12,0.00
2013-1-16,41.4,34.3,30.2,30.9,26.7,21.7,81,74,57,30.02,29.65,14,4,21,0.00
2013-1-17,35.4,26.1,17.1,30.8,21.2,14.4,91,82,68,30.04,29.71,14,5,21,0.00
2013-1-18,36.1,21.4,13.6,18.8,12.8,8.2,90,71,48,30.29,29.86,15,4,24,0.00
2013-1-19,48.7,43.5,36.1,31.3,25.5,17.9,56,49,40,29.87,29.46,19,9,25,0.00
2013-1-20,48.9,30.6,18.5,35.4,17.8,5.2,76,59,43,29.93,29.33,23,11,40,0.02
2013-1-21,22.3,18.8,12.4,16.6,10.5,0.4,88,70,58,29.92,29.71,9,3,15,0.00
2013-1-22,12.9,9.2,6.1,1.8,-3.0,-5.2,67,57,48,30.02,26.62,14,7,18,0.00
2013-1-23,16.0,10.7,5.5,9.6,3.1,-4.3,83,71,49,30.06,29.92,8,3,13,0.00
2013-1-24,14.7,10.7,4.3,11.4,6.5,-0.1,89,83,73,30.36,29.91,13,4,19,0.00
2013-1-25,18.5,13.1,5.2,12.5,7.9,0.6,86,80,62,30.34,29.91,7,2,12,0.00
2013-1-26,27.3,17.2,3.9,16.1,10.1,-0.1,87,75,52,30.24,29.92,6,1,10,0.00
2013-1-27,38.1,24.9,19.2,23.4,17.2,14.5,92,73,48,30.41,30.19,7,1,11,0.00
2013-1-28,45.9,37.9,25.9,45.1,34.4,17.4,100,88,56,30.19,29.71,12,4,17,0.31
2013-1-29,59.5,47.0,38.8,55.7,45.3,37.5,99,94,86,29.91,29.61,14,3,19,0.40
2013-1-30,66.0,60.6,54.7,56.9,52.5,50.0,92,75,62,29.61,28.92,17,6,25,0.13
2013-1-31,55.9,29.3,21.6,53.5,21.7,10.3,97,74,53,29.56,28.91,22,11,35,0.10
2013-2-1,22.8,19.3,17.1,16.3,12.5,8.2,91,75,60,30.04,29.55,14,7,20,0.00
2013-2-2,21.6,18.1,14.4,15.3,11.9,6.4,89,76,65,30.04,29.81,12,4,17,0.00
2013-2-3,27.9,20.0,11.8,18.5,13.8,8.3,90,78,50,29.81,29.62,7,2,11,0.00
2013-2-4,21.6,18.7,15.1,15.9,11.8,5.8,82,74,54,29.81,29.70,13,4,21,0.00
2013-2-5,34.2,24.6,18.0,21.4,17.1,14.2,90,74,52,29.79,29.67,10,2,14,0.00
2013-2-6,28.8,24.6,18.1,24.6,16.0,7.2,92,71,46,30.22,29.72,15,5,20,0.00
2013-2-7,34.0,26.3,17.4,23.8,17.3,10.8,80,69,57,30.25,29.91,10,3,14,0.00
2013-2-8,38.5,31.3,20.1,35.8,27.2,18.0,98,85,65,29.95,29.61,13,3,18,0.11
2013-2-9,21.7,19.2,12.2,18.8,16.5,9.1,92,89,87,30.26,29.95,8,4,12,0.00
2013-2-10,41.2,25.9,8.4,35.4,20.4,4.9,96,81,52,30.25,29.81,15,2,18,0.04
2013-2-11,53.4,40.4,32.0,42.6,32.1,23.4,98,73,50,29.81,29.43,21,10,33,0.08
2013-2-12,34.5,32.2,30.0,31.8,28.0,24.4,99,85,73,29.82,29.58,16,8,23,0.00
2013-2-13,47.8,34.0,26.6,28.2,25.7,23.1,88,72,44,29.77,29.58,8,1,11,0.00
2013-2-14,47.1,35.6,26.4,36.7,30.0,23.3,94,81,49,29.77,29.62,10,2,17,0.05
2013-2-15,39.6,33.2,23.4,36.4,24.6,14.3,89,71,55,29.92,29.62,17,8,29,0.01
2013-2-16,41.7,26.6,18.1,23.2,16.7,7.9,90,69,34,29.92,29.76,8,2,10,0.00
2013-2-17,20.5,15.1,11.1,18.5,11.9,6.1,92,87,78,30.04,29.74,12,5,20,0.00
2013-2-18,38.5,23.7,11.1,25.6,16.1,8.0,90,74,54,30.13,29.74,8,3,12,0.03
2013-2-19,45.1,35.0,23.4,38.4,27.0,17.9,92,74,47,29.74,29.41,17,8,28,0.18
2013-2-20,23.4,20.3,18.3,21.7,14.2,9.4,94,77,60,29.92,29.60,14,8,21,0.00
2013-2-21,22.8,19.0,14.7,18.0,14.3,9.5,91,82,74,30.26,29.89,12,6,17,0.00
2013-2-22,37.0,30.0,22.5,30.8,24.1,17.9,90,79,61,30.24,29.85,13,4,20,0.00
2013-2-23,40.8,34.8,30.6,33.6,29.3,24.8,88,80,71,29.86,29.73,14,5,20,0.01
2013-2-24,32.7,30.6,29.1,27.5,25.3,23.0,91,81,73,29.93,29.71,10,5,16,0.00
2013-2-25,37.2,33.4,29.5,29.9,27.6,24.5,85,79,69,30.08,29.92,7,3,12,0.00
2013-2-26,48.4,36.4,26.2,35.1,28.5,22.6,100,75,46,30.08,29.61,10,2,17,0.41
2013-2-27,37.8,35.7,34.5,36.8,35.3,34.4,100,98,96,29.62,29.44,11,3,18,0.41
2013-2-28,36.9,35.1,34.0,35.2,33.9,32.5,99,95,88,29.59,29.40,9,4,13,0.23
2013-3-1,34.3,28.6,25.0,34.1,26.6,21.1,100,92,83,29.79,29.59,11,5,16,0.00
2013-3-2,25.2,23.5,20.7,22.9,20.4,17.1,93,88,81,29.81,29.73,10,5,15,0.00
2013-3-3,24.6,22.4,20.5,22.1,19.8,16.1,96,89,78,29.76,29.69,12,6,18,0.05
2013-3-4,29.7,24.6,19.4,23.4,20.0,17.5,95,83,68,29.91,29.75,14,7,21,0.00
2013-3-5,36.7,26.6,24.1,26.6,20.9,19.2,84,79,62,29.95,29.91,9,3,13,0.03
2013-3-6,37.0,36.7,36.3,34.4,33.6,28.0,90,88,70,30.00,29.99,4,1,7,0.14
2013-3-7,40.3,36.4,32.5,35.9,32.3,29.4,95,85,70,30.14,30.00,9,2,12,0.00
2013-3-8,47.8,36.8,30.6,31.3,27.5,21.9,95,72,40,30.26,30.13,14,4,19,0.01
2013-3-9,58.8,39.8,28.2,36.5,29.8,25.3,96,71,34,30.29,30.08,6,2,8,0.00
2013-3-10,65.7,54.2,39.0,31.9,27.8,22.9,66,37,26,30.08,29.85,12,4,18,0.00
2013-3-11,59.0,55.2,52.7,47.1,32.0,28.1,77,42,36,29.85,29.53,18,7,24,0.00
2013-3-12,53.8,38.7,34.0,47.1,34.4,28.5,95,84,76,29.78,29.57,16,7,21,0.14
2013-3-13,37.4,31.9,20.3,32.7,25.4,17.1,96,77,59,29.81,29.69,16,7,25,0.00
2013-3-14,33.3,24.8,18.0,17.8,12.5,4.3,91,62,34,29.92,29.81,18,9,28,0.00
2013-3-15,36.0,31.3,26.1,32.5,26.0,14.4,98,81,60,29.91,29.60,13,7,20,0.00
2013-3-16,33.4,27.2,18.3,24.3,19.4,15.1,90,73,59,29.84,29.69,10,3,14,0.00
2013-3-17,36.7,24.9,18.3,29.9,17.7,10.5,94,76,43,30.18,29.83,11,3,14,0.01
2013-3-18,37.9,27.6,16.9,33.7,19.9,10.9,94,74,38,30.18,29.55,14,3,22,0.00
2013-3-19,38.5,31.8,23.9,35.7,28.0,18.7,95,86,72,29.69,29.51,16,6,24,0.18
2013-3-20,34.0,26.6,22.5,25.4,20.0,14.4,92,77,51,29.70,29.64,14,7,21,0.01
2013-3-21,28.9,24.4,18.9,26.1,18.7,10.7,95,79,52,29.69,29.57,14,5,18,0.00
2013-3-22,30.4,27.6,24.3,27.4,25.0,22.3,95,90,84,29.79,29.59,13,6,20,0.00
2013-3-23,39.2,33.1,28.2,28.8,24.6,21.2,88,72,52,29.88,29.77,14,6,20,0.00
2013-3-24,46.8,34.0,24.8,29.7,24.0,20.3,94,69,42,29.89,29.59,10,4,14,0.00
2013-3-25,43.2,36.8,32.2,31.2,27.6,25.5,82,70,55,29.60,29.47,12,4,15,0.00
2013-3-26,53.1,39.9,31.6,32.8,29.7,23.5,88,69,39,29.82,29.59,14,5,18,0.00
2013-3-27,45.0,35.7,32.0,36.4,32.2,27.3,99,87,64,29.93,29.78,11,6,18,0.01
2013-3-28,44.4,37.5,34.0,38.4,34.6,32.0,98,90,64,30.08,29.91,10,3,13,0.08
2013-3-29,51.6,41.8,36.1,36.1,32.6,27.5,90,72,41,30.08,30.00,11,5,16,0.00
2013-3-30,53.4,41.9,32.4,31.6,26.9,21.7,84,59,34,30.08,29.91,11,4,16,0.00
2013-3-31,59.0,48.0,41.0,44.4,32.2,22.7,90,57,34,29.91,29.48,13,5,19,0.02
2013-4-1,46.9,35.7,26.4,42.0,27.5,13.0,96,74,41,29.81,29.44,19,7,25,0.03
2013-4-2,32.0,27.1,23.2,26.9,19.2,14.7,96,72,53,29.98,29.81,14,7,23,0.00
2013-4-3,37.6,30.3,25.9,20.3,16.7,12.7,73,58,38,30.25,29.96,17,7,23,0.00
2013-4-4,56.5,39.3,25.9,22.4,18.7,11.4,76,48,17,30.22,29.78,12,4,17,0.00
2013-4-5,46.0,39.4,28.8,29.3,22.0,13.0,68,50,33,30.03,29.74,16,7,23,0.00
2013-4-6,54.0,39.2,24.1,27.3,21.1,15.8,80,51,24,30.19,29.89,8,2,14,0.00
2013-4-7,68.9,54.8,44.2,46.4,33.2,19.6,70,45,30,29.92,29.58,22,9,31,0.00
2013-4-8,65.8,50.5,41.5,50.4,38.6,33.5,89,66,38,29.99,29.62,12,2,21,0.03
2013-4-9,71.4,53.7,46.0,51.7,45.8,42.0,98,77,41,30.00,29.62,16,5,25,0.72
2013-4-10,50.4,44.9,40.8,49.3,44.3,40.0,99,98,94,29.93,29.73,14,5,18,0.66
2013-4-11,41.2,35.9,32.9,40.2,34.6,29.8,100,95,76,30.01,29.80,12,4,20,4.08
2013-4-12,54.9,41.1,33.8,51.4,39.4,33.6,100,94,79,29.80,29.39,17,6,26,27.66
2013-4-13,44.8,41.2,38.7,38.1,35.0,30.6,90,79,64,29.81,29.64,17,8,25,0.37
2013-4-14,53.8,41.7,35.2,34.7,30.8,26.4,90,66,43,30.06,29.81,11,4,15,0.01
2013-4-15,75.9,57.9,39.0,47.5,40.0,28.9,74,54,34,30.03,29.87,13,4,21,0.00
2013-4-16,65.1,58.3,47.8,58.4,50.7,37.0,96,77,60,30.12,29.85,15,6,23,0.11
2013-4-17,63.0,49.5,37.9,40.8,34.7,30.9,85,59,36,30.24,30.10,12,3,16,0.00
2013-4-18,78.3,63.2,45.3,59.0,49.7,33.1,74,62,50,30.10,29.58,20,7,28,0.02
2013-4-19,73.6,58.0,40.6,58.5,48.0,30.5,94,70,56,29.64,29.28,22,10,32,0.02
2013-4-20,41.7,37.5,33.4,34.2,27.4,20.3,94,68,51,30.29,29.61,18,9,30,0.00
2013-4-21,53.1,38.7,28.2,30.6,24.0,17.8,79,57,37,30.55,30.28,12,3,15,0.00
2013-4-22,63.9,49.4,33.8,31.6,25.9,18.1,68,42,26,30.46,30.20,14,4,18,0.00
2013-4-23,72.3,55.7,41.4,39.8,33.3,25.8,64,44,27,30.21,29.81,12,5,17,0.00
2013-4-24,68.4,54.9,37.8,56.8,44.0,34.9,97,69,47,29.89,29.46,18,7,26,0.12
2013-4-25,58.5,45.5,36.9,41.0,34.0,24.0,93,68,31,30.18,29.89,12,5,19,0.00
2013-4-26,61.2,48.0,37.9,40.2,32.5,24.0,95,60,26,30.36,30.18,13,3,16,0.00
2013-4-27,76.8,58.4,44.1,43.9,35.1,29.9,61,44,24,30.32,30.10,8,2,12,0.00
2013-4-28,76.8,61.6,51.8,50.2,40.5,32.4,82,49,23,30.11,29.89,14,5,20,0.08
2013-4-29,67.1,59.3,51.4,53.5,49.5,44.7,86,70,60,29.93,29.85,14,6,22,0.20
2013-4-30,74.8,65.3,58.6,54.7,52.6,49.9,84,65,46,30.11,29.92,14,4,18,0.00
2013-5-1,82.8,69.6,59.0,53.1,46.8,29.7,74,48,23,30.22,30.10,9,3,14,0.00
2013-5-2,82.6,69.3,57.4,45.0,37.6,30.2,54,32,17,30.31,30.15,10,3,14,0.00
2013-5-3,84.6,70.1,59.7,48.0,42.7,39.5,53,38,25,30.19,30.08,8,3,13,0.00
2013-5-4,79.7,67.2,55.9,44.7,40.3,29.0,52,39,18,30.17,30.02,10,3,15,0.00
2013-5-5,83.5,68.1,53.8,47.5,42.4,36.5,64,42,23,30.10,29.96,12,2,15,0.00
2013-5-6,82.9,67.5,54.1,43.7,37.1,26.8,56,35,15,30.04,29.91,13,2,17,0.00
2013-5-7,84.0,70.1,54.7,54.7,50.8,43.7,80,52,32,30.02,29.89,10,2,14,0.00
2013-5-8,73.6,64.1,59.2,64.1,56.1,50.2,92,76,57,29.94,29.81,7,1,10,0.57
2013-5-9,75.2,63.6,59.0,62.5,59.0,54.4,98,86,58,29.87,29.76,11,2,14,0.39
2013-5-10,77.4,63.8,54.9,64.0,56.3,47.8,93,77,52,29.85,29.61,9,1,20,0.32
2013-5-11,61.5,52.9,48.4,59.6,49.9,44.8,97,90,76,29.66,29.55,8,3,16,0.06
2013-5-12,52.0,44.3,38.7,47.3,36.3,28.9,94,74,51,29.81,29.57,16,5,24,0.02
2013-5-13,48.9,41.7,35.2,35.5,32.6,28.8,86,71,54,30.01,29.80,12,3,21,0.00
2013-5-14,64.8,50.4,37.2,39.9,34.0,26.6,92,58,28,30.03,29.82,7,1,10,0.00
2013-5-15,79.3,63.8,51.8,59.9,47.6,38.8,73,57,41,29.83,29.43,14,4,29,0.02
2013-5-16,76.8,65.2,53.2,48.8,43.9,32.4,73,49,26,29.91,29.63,16,4,25,0.00
2013-5-17,72.0,58.1,42.3,46.3,41.0,33.7,90,56,31,30.12,29.91,6,1,11,0.00
2013-5-18,76.3,61.4,46.8,49.6,44.7,41.1,85,57,34,30.15,30.02,8,2,13,0.00
2013-5-19,87.6,71.5,60.6,63.3,58.1,49.6,80,64,41,30.03,29.88,6,1,12,0.00
2013-5-20,93.0,73.7,63.1,67.8,62.5,58.6,88,70,38,29.94,29.77,6,1,10,0.00
2013-5-21,90.3,76.2,65.1,70.5,65.4,59.6,94,71,43,29.86,29.65,13,2,22,0.46
2013-5-22,88.9,76.5,65.8,68.8,64.7,58.5,94,69,42,29.71,29.55,15,2,23,0.00
2013-5-23,77.4,67.0,47.7,64.4,59.0,45.4,94,76,52,29.78,29.60,13,4,16,0.11
2013-5-24,52.9,44.6,39.9,45.5,39.1,34.9,96,82,53,30.10,29.78,13,7,20,0.12
2013-5-25,60.6,50.3,41.2,38.7,36.2,31.3,87,60,38,30.13,30.05,16,7,21,0.00
2013-5-26,65.1,53.3,40.8,42.1,36.1,29.5,89,56,30,30.11,30.03,15,5,22,0.00
2013-5-27,77.9,60.5,44.8,42.8,39.2,34.2,82,50,25,30.17,30.03,8,1,12,0.00
2013-5-28,65.7,60.0,53.4,64.3,52.7,36.4,97,79,43,30.05,29.82,12,2,16,1.27
2013-5-29,80.6,72.3,64.0,68.8,64.0,55.4,100,77,55,29.93,29.78,10,3,21,0.73
2013-5-30,88.7,77.9,69.6,67.5,64.0,59.7,81,64,40,30.03,29.93,7,2,15,0.00
2013-5-31,90.7,80.9,72.3,70.0,64.3,59.0,75,58,39,29.98,29.84,8,2,15,0.00
2013-6-1,88.0,76.1,69.1,70.7,66.0,62.0,95,73,49,29.88,29.66,15,3,21,0.42
2013-6-2,75.0,69.0,58.5,68.6,62.8,51.8,98,81,61,29.78,29.59,11,3,22,0.48
2013-6-3,65.3,59.1,51.4,52.7,47.6,44.0,86,67,50,29.92,29.78,9,2,16,0.00
2013-6-4,71.6,59.3,48.9,48.1,42.1,34.6,87,57,29,30.07,29.92,11,3,16,0.00
2013-6-5,74.1,60.3,50.7,50.0,45.9,38.9,86,61,40,30.12,29.98,10,2,15,0.00
2013-6-6,60.6,57.4,54.1,59.2,53.3,41.8,96,87,57,29.98,29.73,7,2,10,1.87
2013-6-7,64.2,60.2,57.9,59.8,58.5,56.8,98,94,84,29.76,29.69,6,2,9,0.06
2013-6-8,64.6,60.6,57.7,60.2,57.5,53.5,98,90,78,29.98,29.71,7,1,11,0.05
2013-6-9,81.9,67.5,54.7,61.5,55.1,50.6,88,67,42,30.10,29.98,7,1,10,0.00
2013-6-10,72.0,67.7,64.2,66.8,62.4,56.3,94,84,74,30.02,29.60,7,1,14,0.10
2013-6-11,71.8,66.6,61.5,67.0,62.2,56.0,98,86,67,29.76,29.54,12,3,18,0.38
2013-6-12,83.7,70.3,56.1,61.9,57.1,52.5,94,66,37,29.84,29.66,6,1,9,0.00
2013-6-13,69.3,63.0,57.4,62.1,59.4,55.1,96,88,68,29.68,29.40,12,2,19,1.42
2013-6-14,77.5,64.9,56.5,60.8,57.9,54.7,98,80,50,29.89,29.68,11,3,16,0.00
2013-6-15,75.6,65.2,55.2,58.3,53.5,44.4,96,69,39,29.96,29.85,10,1,15,0.00
2013-6-16,76.1,68.1,64.0,68.1,60.5,52.1,96,77,62,29.85,29.61,10,2,18,0.11
2013-6-17,80.8,71.0,63.3,64.0,61.1,56.8,93,73,48,29.84,29.71,8,2,16,0.15
2013-6-18,73.9,65.0,55.4,61.4,54.0,43.6,93,70,40,29.92,29.78,9,2,13,0.00
2013-6-19,76.1,63.9,52.7,52.7,48.4,40.6,90,61,34,30.10,29.92,8,1,13,0.00
2013-6-20,84.9,65.9,47.8,55.7,48.7,44.4,89,58,30,30.15,30.08,8,1,13,0.00
2013-6-21,90.3,72.7,54.1,59.9,53.9,46.1,83,55,30,30.18,30.08,7,1,12,0.00
2013-6-22,89.4,77.7,64.9,68.8,63.3,56.6,79,62,48,30.08,29.91,8,2,14,0.00
2013-6-23,89.6,80.8,73.2,72.3,67.1,60.9,85,64,50,29.98,29.91,8,2,17,0.00
2013-6-24,85.6,79.6,75.2,69.9,65.3,61.6,74,62,50,29.96,29.85,8,2,16,0.00
2013-6-25,83.5,76.5,71.8,70.1,66.1,62.6,87,71,60,29.87,29.71,8,2,15,0.00
2013-6-26,83.8,75.3,69.3,70.2,66.9,63.2,92,76,57,29.74,29.69,8,2,15,0.16
2013-6-27,84.0,74.4,66.9,72.3,67.5,63.6,93,80,62,29.72,29.54,7,0,14,0.22
2013-6-28,71.2,67.2,62.6,68.7,65.4,61.3,96,94,88,29.55,29.40,7,1,11,1.28
2013-6-29,80.8,69.5,62.8,70.0,64.1,60.7,97,84,56,29.61,29.40,8,1,12,0.34
2013-6-30,83.1,71.7,61.3,68.1,63.4,59.6,95,77,54,29.84,29.60,7,1,10,0.00
2013-7-1,70.9,66.0,61.5,64.8,62.9,60.1,95,90,75,29.97,29.83,10,2,16,0.17
2013-7-2,84.0,70.1,61.3,71.9,65.5,59.2,96,86,64,30.01,29.91,7,1,11,0.04
2013-7-3,93.2,75.6,67.6,77.4,70.5,66.5,97,86,52,30.06,29.99,8,1,12,0.99
2013-7-4,86.5,76.6,72.0,73.2,70.6,68.0,95,83,57,30.10,30.02,5,1,12,0.06
2013-7-5,86.4,76.8,71.2,73.6,70.0,67.7,93,80,58,30.05,29.97,7,1,12,0.00
2013-7-6,90.1,78.9,69.4,73.3,68.9,63.7,92,73,49,30.07,29.94,5,1,10,0.00
2013-7-7,82.9,76.6,71.2,73.0,69.6,64.9,93,80,62,29.97,29.85,7,1,13,0.02
2013-7-8,86.4,76.5,71.2,71.1,68.3,65.6,89,77,56,29.97,29.89,8,1,13,0.00
2013-7-9,82.0,76.0,71.4,75.8,70.8,67.7,93,84,71,29.95,29.81,5,0,12,0.16
2013-7-10,85.3,77.1,72.3,76.0,70.5,62.7,94,81,66,29.81,29.62,13,3,22,0.00
2013-7-11,83.8,71.7,61.5,67.8,60.1,57.0,90,69,44,29.93,29.74,8,2,13,0.00
2013-7-12,80.8,69.8,61.3,66.8,62.3,59.1,94,79,55,30.09,29.93,8,1,12,0.00
2013-7-13,87.3,74.3,60.4,71.2,66.1,58.3,95,77,54,30.16,30.07,7,1,11,0.00
2013-7-14,96.3,80.9,68.0,76.5,70.4,65.5,94,73,44,30.22,30.15,6,0,9,0.00
2013-7-15,96.3,82.6,73.2,77.0,71.5,63.6,89,71,47,30.22,30.15,7,1,10,0.00
2013-7-16,95.5,82.6,72.0,76.1,69.6,63.2,88,68,39,30.21,30.13,8,1,12,0.00
2013-7-17,93.9,83.6,75.2,78.6,73.4,66.4,88,73,46,30.15,30.00,9,2,14,0.00
2013-7-18,92.5,82.9,76.1,77.9,74.3,70.7,93,76,56,30.03,29.87,8,1,15,0.00
2013-7-19,91.8,82.4,68.2,75.1,70.6,63.0,97,69,49,29.88,29.63,18,4,29,1.13
2013-7-20,83.5,73.6,67.6,71.1,67.9,59.4,97,84,47,29.81,29.62,10,2,14,0.59
2013-7-21,86.7,73.2,64.9,66.6,63.3,58.5,93,73,46,29.91,29.80,9,1,12,0.00
2013-7-22,88.5,73.5,62.6,69.1,64.1,58.1,93,74,44,29.91,29.68,7,1,10,0.02
2013-7-23,83.8,74.0,66.0,70.1,67.1,60.9,95,81,53,29.69,29.52,11,2,17,0.07
2013-7-24,72.0,63.7,55.4,61.0,53.6,48.0,88,71,47,29.95,29.62,12,4,18,0.00
2013-7-25,81.0,65.2,51.3,57.5,52.6,49.0,94,68,39,30.03,29.94,8,1,13,0.00
2013-7-26,86.2,68.6,52.3,61.1,55.3,50.1,94,66,34,30.03,29.91,5,1,7,0.00
2013-7-27,81.9,71.0,61.9,65.8,61.9,55.8,89,74,54,29.91,29.72,7,1,10,0.01
2013-7-28,77.7,69.4,61.5,65.8,60.3,54.3,90,74,50,29.89,29.71,8,1,13,0.02
2013-7-29,70.7,64.4,58.3,59.3,56.0,53.2,89,75,56,30.04,29.87,7,1,15,0.00
2013-7-30,76.8,67.2,58.1,60.7,57.9,55.0,91,74,50,30.11,30.04,8,1,14,0.00
2013-7-31,86.9,70.8,57.9,64.7,59.5,53.8,92,70,40,30.07,29.84,6,0,9,0.00
2013-8-1,77.7,70.1,65.5,69.4,63.8,59.6,94,81,62,29.85,29.68,10,2,18,0.33
2013-8-2,77.5,68.5,61.3,69.3,60.9,54.3,95,79,48,29.81,29.73,8,1,19,0.31
2013-8-3,79.5,69.0,61.7,63.4,58.7,50.2,96,72,38,29.85,29.72,12,2,17,0.01
2013-8-4,75.4,65.1,57.7,60.0,54.6,47.8,91,70,48,29.98,29.85,13,4,20,0.00
2013-8-5,82.4,65.8,52.9,58.5,53.4,46.9,93,68,34,30.02,29.92,7,0,10,0.00
2013-8-6,87.6,69.7,55.8,60.9,56.5,52.6,93,66,35,29.96,29.87,5,0,8,0.00
2013-8-7,83.8,74.5,66.0,69.2,64.6,59.8,84,72,55,29.89,29.77,7,2,12,0.00
2013-8-8,90.0,75.8,68.2,75.0,69.5,64.2,96,82,55,29.87,29.80,7,1,12,0.99
2013-8-9,81.0,72.0,64.9,70.9,66.7,59.9,96,84,53,29.85,29.76,8,1,12,0.50
2013-8-10,76.3,67.8,60.4,64.4,56.7,49.7,92,70,43,30.00,29.85,11,3,16,0.00
2013-8-11,80.4,66.9,55.9,59.4,56.2,50.8,96,72,40,30.04,29.94,6,1,10,0.00
2013-8-12,79.7,70.3,62.8,64.6,60.4,56.7,86,72,53,29.96,29.76,6,0,12,0.00
2013-8-13,73.6,66.8,58.5,66.7,59.2,47.3,95,77,55,29.78,29.65,15,4,24,0.37
2013-8-14,70.9,60.8,53.6,55.9,50.8,45.8,94,71,47,29.99,29.76,13,4,20,0.01
2013-8-15,74.8,63.4,53.4,56.0,51.8,48.6,87,68,42,30.04,29.98,10,1,16,0.00
2013-8-16,82.8,66.8,56.8,61.5,56.4,52.1,91,71,42,30.12,30.02,7,0,12,0.00
2013-8-17,88.0,69.5,54.1,61.9,56.7,48.3,95,68,30,30.21,30.11,5,0,8,0.00
2013-8-18,86.0,71.6,59.2,66.1,59.5,54.5,89,68,40,30.16,30.02,3,0,6,0.00
2013-8-19,85.5,72.3,62.8,66.5,61.4,55.6,91,71,43,30.04,29.94,7,1,12,0.00
2013-8-20,84.4,73.0,63.1,65.1,61.1,58.5,87,68,43,30.05,29.97,5,1,12,0.00
2013-8-21,88.5,75.7,64.9,66.4,62.3,59.3,84,65,42,30.08,29.93,6,1,10,0.00
2013-8-22,84.6,75.0,68.2,71.7,66.5,61.0,90,75,61,29.95,29.83,10,2,16,0.02
2013-8-23,83.8,68.5,56.5,61.2,57.0,51.0,94,70,41,30.12,29.91,9,1,13,0.00
2013-8-24,85.1,66.8,51.6,61.0,53.3,48.2,96,67,32,30.26,30.12,8,1,10,0.00
2013-8-25,85.8,70.0,54.5,60.2,55.1,51.3,91,63,36,30.25,30.03,7,1,12,0.00
2013-8-26,80.6,71.9,68.5,70.9,65.5,58.5,95,81,63,30.08,29.83,12,2,20,0.28
2013-8-27,86.0,76.2,69.4,73.6,70.9,67.8,96,85,63,29.86,29.78,8,1,11,0.00
2013-8-28,88.7,76.8,68.2,76.0,71.0,65.8,95,83,57,29.87,29.76,8,1,13,0.03
2013-8-29,92.1,75.5,64.2,73.5,67.1,62.8,97,78,45,29.96,29.87,7,1,12,0.00
2013-8-30,86.4,74.5,63.5,69.5,66.5,61.6,96,78,54,29.93,29.66,6,1,10,0.00
2013-8-31,85.5,76.4,70.3,72.5,69.3,66.8,92,79,58,29.77,29.62,9,1,16,0.00
2013-9-1,87.1,74.7,67.3,76.2,69.5,65.1,100,85,58,29.76,29.65,22,1,32,0.52
2013-9-2,83.5,73.1,64.4,73.9,68.5,57.6,99,86,60,29.72,29.60,10,2,16,0.11
2013-9-3,68.7,64.3,60.6,59.7,57.7,55.3,88,79,68,29.86,29.69,11,2,16,0.00
2013-9-4,76.8,67.3,57.7,65.4,57.7,49.7,94,73,40,29.90,29.85,10,2,24,0.06
2013-9-5,70.3,60.5,48.9,62.5,50.3,37.1,92,71,40,30.14,29.88,11,2,18,0.01
2013-9-6,75.6,59.4,45.3,52.9,46.1,41.3,91,65,34,30.19,30.00,6,0,10,0.00
2013-9-7,66.9,62.5,57.4,62.9,54.2,47.3,93,75,59,30.00,29.77,7,1,17,0.07
2013-9-8,72.7,64.5,50.5,66.6,54.1,44.3,96,72,40,30.02,29.76,7,1,16,0.01
2013-9-9,83.5,64.6,48.6,65.3,54.0,44.4,89,71,44,30.04,29.86,6,1,12,0.00
2013-9-10,90.7,80.0,71.2,75.3,70.7,64.2,94,74,58,29.92,29.82,9,3,18,0.54
2013-9-11,92.5,82.7,75.7,74.3,71.8,67.4,82,70,54,29.95,29.81,8,2,15,0.00
2013-9-12,78.4,70.0,61.3,69.5,65.7,58.1,95,86,72,29.87,29.63,14,1,21,0.18
2013-9-13,61.5,56.3,50.9,59.0,52.9,47.6,95,89,74,29.92,29.67,12,4,16,0.04
2013-9-14,65.8,55.3,50.2,49.4,44.4,36.6,94,69,39,30.03,29.91,9,2,14,0.01
2013-9-15,69.3,59.1,48.9,54.4,49.2,42.2,91,71,54,30.06,29.95,11,1,17,0.10
2013-9-16,59.2,52.6,44.4,56.7,49.9,42.4,95,91,78,30.27,29.96,7,1,13,0.06
2013-9-17,70.3,53.8,38.8,48.9,42.8,37.4,97,70,39,30.38,30.18,8,1,10,0.00
2013-9-18,84.4,62.3,47.1,54.7,46.5,40.6,89,60,26,30.19,30.01,6,0,9,0.00
2013-9-19,83.8,66.5,53.2,61.3,54.8,47.8,91,69,40,30.04,29.91,5,0,9,0.00
2013-9-20,85.6,72.2,57.4,66.6,62.1,54.3,94,72,50,29.92,29.66,8,1,12,0.00
2013-9-21,73.0,65.1,55.2,65.4,61.0,52.4,94,87,68,29.66,29.52,15,1,23,0.84
2013-9-22,58.6,53.8,51.3,52.9,46.0,40.7,91,75,60,29.93,29.63,12,4,19,0.00
2013-9-23,64.6,53.7,45.3,45.7,43.3,38.8,89,69,44,30.05,29.92,10,2,15,0.00
2013-9-24,73.8,54.5,43.3,51.8,45.1,40.8,93,74,39,30.04,29.91,7,1,10,0.00
2013-9-25,79.0,57.3,43.3,55.1,47.3,41.1,95,73,36,29.92,29.85,7,0,11,0.00
2013-9-26,76.3,58.0,43.5,57.3,50.1,41.5,95,77,47,30.06,29.90,8,1,12,0.00
2013-9-27,76.1,58.7,47.5,57.7,51.5,45.6,95,79,47,30.17,30.06,6,1,10,0.00
2013-9-28,81.1,64.0,48.0,58.8,53.3,45.8,96,71,42,30.19,30.07,7,1,10,0.00
2013-9-29,81.9,64.8,52.7,57.5,52.9,48.6,88,68,40,30.07,29.89,5,1,9,0.00
2013-9-30,77.9,66.8,59.9,62.4,58.3,52.6,87,75,56,29.92,29.85,6,0,11,0.00
2013-10-1,78.1,67.6,61.0,62.8,58.8,52.4,92,75,44,29.93,29.81,7,1,14,0.00
2013-10-2,76.5,68.6,59.9,64.0,60.9,57.0,90,77,59,30.00,29.81,9,2,16,0.00
2013-10-3,80.2,63.8,48.0,58.4,50.5,42.0,94,67,28,30.04,29.92,4,0,6,0.01
2013-10-4,77.0,67.3,62.1,69.9,64.1,56.0,96,90,73,29.98,29.89,6,1,12,0.54
2013-10-5,67.3,62.7,61.0,62.6,60.1,57.0,96,91,84,30.00,29.92,7,2,10,0.26
2013-10-6,85.1,72.0,60.6,73.8,65.6,58.1,96,82,57,29.92,29.62,7,2,13,0.68
2013-10-7,75.6,60.7,51.1,65.6,54.9,44.8,95,82,62,29.95,29.53,11,3,20,0.54
2013-10-8,69.4,55.9,48.0,50.7,46.7,42.5,94,74,41,30.25,29.95,7,1,11,0.01
2013-10-9,75.9,58.1,47.8,50.2,45.5,40.8,87,66,30,30.29,30.17,7,1,10,0.00
2013-10-10,74.7,58.2,45.7,48.3,42.4,35.0,84,59,26,30.18,30.04,7,1,9,0.00
2013-10-11,78.3,58.6,47.1,53.9,46.7,41.8,92,69,32,30.06,30.01,7,1,10,0.00
2013-10-12,80.8,62.8,45.9,50.9,44.4,35.1,94,57,23,30.09,30.02,8,1,12,0.00
2013-10-13,71.1,65.0,59.2,64.2,55.0,40.8,94,71,45,30.17,30.08,5,1,11,0.13
2013-10-14,67.8,58.7,48.0,61.6,52.6,45.2,95,82,56,30.25,30.15,10,1,15,0.04
2013-10-15,71.4,58.3,43.7,57.4,51.6,41.7,95,80,55,30.19,29.84,7,1,13,0.00
2013-10-16,71.4,64.1,57.4,61.0,56.1,51.4,93,76,64,29.85,29.66,8,2,14,0.22
2013-10-17,66.9,57.2,52.0,54.0,50.8,48.1,94,80,55,29.78,29.55,5,0,8,0.46
2013-10-18,59.7,53.7,50.2,52.6,45.3,37.9,95,75,47,29.80,29.62,12,2,18,0.07
2013-10-19,64.6,55.2,44.4,50.8,44.6,39.8,93,69,45,29.79,29.52,13,2,19,0.11
2013-10-20,54.3,47.8,42.4,46.3,42.3,39.1,90,81,65,29.87,29.64,8,2,12,0.01
2013-10-21,68.5,57.9,46.8,50.4,39.9,35.4,89,54,31,29.87,29.68,10,3,17,0.04
2013-10-22,52.5,46.4,40.6,50.2,37.2,28.2,93,71,51,29.73,29.62,13,3,20,0.18
2013-10-23,46.9,42.5,37.2,41.9,36.7,30.8,90,80,64,29.72,29.58,10,1,14,0.05
2013-10-24,50.2,41.1,35.6,38.1,33.4,28.5,92,75,48,29.91,29.67,11,3,17,0.04
2013-10-25,52.0,42.6,37.6,41.8,37.9,34.6,96,84,56,30.07,29.91,10,2,15,0.34
2013-10-26,46.2,42.5,39.7,38.8,33.3,27.1,93,71,50,30.01,29.66,22,6,23,0.09
2013-10-27,49.8,43.5,37.9,40.9,37.0,33.0,94,79,58,29.94,29.69,8,1,13,0.01
2013-10-28,55.8,44.2,30.6,40.8,33.0,22.0,86,66,31,30.27,29.91,11,1,17,0.00
2013-10-29,56.5,41.4,29.1,34.7,29.4,25.7,89,65,35,30.34,30.17,6,1,9,0.00
2013-10-30,67.1,50.2,39.4,43.5,39.3,34.7,89,69,36,30.17,29.98,6,1,8,0.01
2013-10-31,70.3,60.1,46.0,60.4,53.1,40.1,94,78,61,29.98,29.25,12,4,20,0.47
2013-11-1,65.1,56.8,48.9,59.7,49.8,42.3,92,78,61,29.57,29.08,20,7,33,0.22
2013-11-2,51.1,46.7,39.4,48.1,44.2,37.2,95,91,84,29.88,29.48,9,1,15,0.28
2013-11-3,45.0,35.9,27.3,37.2,27.2,21.0,91,72,44,30.40,29.88,8,2,13,0.00
2013-11-4,46.6,36.6,25.2,27.6,22.9,18.4,89,60,35,30.51,30.30,7,1,12,0.00
2013-11-5,62.2,49.6,39.7,36.8,29.8,19.1,57,47,38,30.33,30.21,8,2,12,0.00
2013-11-6,70.9,58.9,50.2,57.8,44.8,32.4,94,61,46,30.21,29.68,10,4,18,0.16
2013-11-7,56.8,44.8,37.9,55.0,38.1,30.9,94,78,62,29.88,29.67,16,5,24,0.22
2013-11-8,42.6,39.3,35.1,33.6,30.2,25.9,88,70,54,30.11,29.83,17,5,25,0.00
2013-11-9,52.7,45.2,39.0,43.3,32.7,28.3,82,63,40,30.10,29.66,12,4,19,0.02
2013-11-10,51.6,44.5,38.7,43.1,35.2,30.3,84,70,58,30.04,29.65,17,8,29,0.04
2013-11-11,45.7,38.7,30.0,38.2,32.9,28.5,99,81,56,30.05,29.79,14,5,24,0.23
2013-11-12,31.8,28.2,25.5,30.3,24.3,18.0,94,86,65,30.25,29.99,14,6,21,0.00
2013-11-13,38.1,31.0,21.9,28.8,23.4,18.5,92,75,52,30.29,29.94,15,6,24,0.01
2013-11-14,51.1,41.7,34.0,26.9,20.5,16.3,63,44,29,29.99,29.88,17,9,26,0.02
2013-11-15,56.1,48.9,44.4,31.7,24.0,18.3,51,38,30,30.00,29.92,11,4,16,0.00
2013-11-16,66.0,53.3,41.5,43.1,35.8,25.5,67,52,38,30.13,29.91,13,2,19,0.00
2013-11-17,64.0,58.7,52.9,56.0,51.2,42.7,90,76,64,29.91,29.25,19,8,27,0.17
2013-11-18,57.4,45.8,36.5,47.3,35.8,26.8,83,68,59,29.78,29.25,22,12,34,0.13
2013-11-19,39.6,35.2,27.1,29.4,25.3,21.6,84,67,52,30.32,29.78,16,6,22,0.00
2013-11-20,44.4,32.6,21.7,30.6,22.9,17.6,90,69,44,30.46,30.29,8,1,13,0.00
2013-11-21,48.4,41.6,35.1,39.4,27.4,16.5,89,58,42,30.30,30.12,14,4,17,0.04
2013-11-22,50.4,44.4,33.4,49.0,42.2,27.8,96,92,80,30.12,29.87,17,4,24,0.21
2013-11-23,36.1,27.5,16.9,29.2,22.3,8.8,98,81,57,30.07,29.88,17,8,25,0.00
2013-11-24,24.6,18.3,14.5,16.7,12.1,9.4,86,77,59,30.26,30.04,13,8,19,0.00
2013-11-25,37.2,31.4,22.1,24.5,13.6,6.7,84,51,31,30.24,29.96,13,6,20,0.00
2013-11-26,38.8,35.8,31.8,34.5,29.5,23.8,95,78,65,30.01,29.67,12,3,16,0.00
2013-11-27,35.4,30.7,22.5,33.6,28.1,16.5,99,90,74,29.78,29.51,15,5,25,0.00
2013-11-28,32.7,23.5,16.0,22.5,16.4,11.4,89,75,49,30.29,29.78,13,3,19,0.00
2013-11-29,43.3,25.9,13.6,24.2,17.2,6.8,90,71,39,30.59,30.28,6,1,8,0.01
2013-11-30,36.1,26.3,11.7,25.5,17.1,5.8,83,68,57,30.58,30.04,12,4,16,0.00
2013-12-1,45.5,39.6,36.0,35.2,31.0,25.2,85,71,57,30.04,29.83,13,2,16,0.70
2013-12-2,43.2,39.5,34.9,35.0,33.7,32.1,92,80,70,29.83,29.73,5,0,8,29.96
2013-12-3,52.0,36.2,26.4,36.1,29.7,23.9,95,78,46,29.88,29.77,4,0,6,0.00
2013-12-4,52.9,42.7,35.1,42.5,36.8,30.4,91,80,62,29.89,29.75,9,1,14,0.01
2013-12-5,64.8,51.8,40.6,55.1,45.2,35.4,85,78,65,29.90,29.62,16,7,21,0.01
2013-12-6,40.8,34.9,30.6,35.9,29.3,23.8,95,80,69,30.12,29.89,8,3,12,0.04
2013-12-7,31.8,27.3,22.5,26.8,18.1,12.3,85,68,53,30.43,30.11,10,5,15,0.00
2013-12-8,30.4,25.6,19.8,23.7,15.6,11.4,88,66,48,30.43,30.03,8,2,14,0.00
2013-12-9,40.8,35.0,28.0,37.2,30.0,22.5,90,82,70,30.04,29.72,17,7,26,0.01
2013-12-10,33.3,24.5,18.5,25.2,16.0,7.0,95,70,53,29.91,29.76,13,7,20,0.00
2013-12-11,24.6,20.4,12.0,21.6,13.2,5.9,93,74,57,30.13,29.91,13,6,19,0.00
2013-12-12,18.9,14.6,9.9,16.2,9.6,4.2,92,81,64,30.18,29.89,12,5,17,0.00
2013-12-13,25.2,20.1,14.2,21.6,15.8,9.8,92,83,70,30.25,29.87,13,5,22,0.00
2013-12-14,22.6,16.2,11.7,20.1,13.3,8.5,90,88,86,30.27,29.58,11,4,16,0.00
2013-12-15,26.1,23.3,18.0,24.3,21.1,11.1,95,91,75,29.72,29.46,13,4,18,0.00
2013-12-16,22.8,15.0,1.2,14.0,9.6,-3.3,90,79,61,30.03,29.72,12,4,18,0.00
2013-12-17,29.1,20.8,0.1,27.2,17.5,-4.1,94,87,81,29.99,29.75,10,2,17,0.00
2013-12-18,32.7,28.5,25.5,25.8,22.8,19.7,93,79,64,29.92,29.77,12,5,18,0.00
2013-12-19,42.8,37.5,28.8,36.5,28.0,16.5,85,69,54,29.91,29.74,14,5,22,0.25
2013-12-20,46.6,42.8,38.3,44.8,40.3,34.9,96,91,77,29.87,29.64,11,2,14,0.23
2013-12-21,55.8,45.4,34.0,53.2,43.8,32.9,100,94,86,29.76,29.59,13,4,21,0.68
2013-12-22,45.0,38.5,32.5,45.0,37.4,30.2,100,96,84,29.69,26.62,15,4,22,3.41
2013-12-23,41.7,35.6,25.5,38.2,30.4,19.0,94,82,64,26.62,26.62,12,5,18,0.00
2013-12-24,27.1,21.8,14.7,24.1,18.4,11.3,93,87,76,26.62,26.62,11,3,16,0.00
2013-12-25,25.9,16.6,3.4,21.7,13.2,-0.4,90,86,80,26.62,26.62,6,1,8,0.00
2013-12-26,32.4,27.7,21.9,29.9,22.5,13.3,94,81,68,26.62,26.62,11,4,18,0.00
2013-12-27,37.0,29.8,20.5,30.7,25.0,13.7,90,82,71,26.62,26.62,10,4,16,0.00
2013-12-28,47.1,41.1,36.5,35.4,31.8,28.3,86,70,54,29.92,26.62,16,7,24,0.03
2013-12-29,49.1,43.4,29.1,40.7,32.6,25.1,94,68,40,29.81,29.49,17,5,21,0.12
2013-12-30,29.5,20.2,17.2,28.2,12.8,5.9,95,73,59,30.06,29.63,14,6,20,0.00
2013-12-31,22.8,18.3,13.6,20.7,10.8,3.0,92,72,58,30.08,29.81,13,5,19,0.00
2014-1-1,22.8,17.4,13.8,15.2,9.7,5.2,90,72,55,30.25,30.08,12,4,18,0.00
2014-1-2,17.2,13.2,7.0,14.1,9.9,3.2,89,86,84,30.14,29.83,14,7,19,0.00